메인 페이지
METAR-TAF:

METAR-TAF

공항 :

킨샤사, 콩고

위도: 04-23S, 경도: 015-26E, 고도: 309m

현재 날씨관측

예보는 1 시간 38분 전, 08:00시(UTC)에 발표되었습니다.
남남서4kt
온도 24°C
습도 83%
기압 1014 hPa
시정: 6000m
고도 1600ft 상공 구름 보통
고도 3000ft 상공 구름 조금, 적란운.
고도 10000ft 상공 구름 많음

METAR: FZAA 180800Z 21004KT 6000 SCT016 FEW030CB BKN100 24/21 Q1014 NOSIG

시각: 10:38 (09:38 UTC)

예보

예보는 4 시간 38분 전, 05:00시(UTC)에 발표되었습니다.
예보 대상 시간: 18일 06시부터 19일 12시까지 (UTC)
남서4kt
시정: 7000m
고도 1400ft 상공 구름 보통
고도 2000ft 상공 구름 조금, 적란운.
뇌우, 약한비
18일 0800시부터 (UTC)
시정 10km 이상
고도 2400ft 상공 구름 보통
전환 중
18일 15시부터 18일 17시까지 (UTC)
북서10kt
고도 2400ft 상공 구름 조금
고도 3000ft 상공 구름 조금, 적란운.
확률 30% :
일시적
18일 19시부터 18일 23시까지 (UTC)
뇌우
전환 중
19일 00시부터 19일 02시까지 (UTC)
고도 1600ft 상공 구름 많음

TAF: FZAA 180500Z 1806/1912 22004KT 7000 -TSRA SCT014 FEW020CB FM180800 9999 NSW SCT024 BECMG 1815/1817 32010KT FEW024 FEW030CB PROB30 TEMPO 1819/1823 TS BECMG 1900/1902 BKN016

4,000개 이상의 공항 관측 자료 및 예보 (METAR 및 TAF 보고).

지도상에서 검색 가능한 기상관측소가 노란 점과 빨간 점으로 표시되어 있습니다.

기상관측소 명을 보려면 표시 위로 마우스를 이동하세요.

날씨 관측과 예보를 보려면 클릭하세요.

지도 변경 : 확대하려면 엑스 표시가 있는 녹색 버튼, 축소하려면 빼기 표시가 있는 녹색 버튼, 다음 페이지의 지도를 보려면 녹색 화살표를 클릭하세요.


METAR-TAF: